createdAt,value
2017-07-27T00:00:41.019Z,73.60
2017-07-27T00:03:07.449Z,73.50
2017-07-27T00:05:33.853Z,73.70
2017-07-27T00:08:00.256Z,73.90
2017-07-27T00:10:27.419Z,74.30
2017-07-27T00:12:53.822Z,73.70
2017-07-27T00:15:20.238Z,73.90
2017-07-27T00:17:46.635Z,73.80
2017-07-27T00:20:13.023Z,73.50
2017-07-27T00:22:39.851Z,73.80
2017-07-27T00:25:06.269Z,73.70
2017-07-27T00:27:32.675Z,73.40
2017-07-27T00:29:59.073Z,73.50
2017-07-27T00:32:26.219Z,73.40
2017-07-27T00:34:52.605Z,73.40
2017-07-27T00:37:18.995Z,73.50
2017-07-27T00:39:45.417Z,73.50
2017-07-27T00:42:12.960Z,73.60
2017-07-27T00:44:39.373Z,73.60
2017-07-27T00:47:05.768Z,73.60
2017-07-27T00:49:32.211Z,73.50
2017-07-27T00:51:58.619Z,73.40
2017-07-27T00:54:25.036Z,73.60
2017-07-27T00:56:52.218Z,73.70
2017-07-27T00:59:18.655Z,73.50
2017-07-27T01:01:45.086Z,73.60
2017-07-27T01:04:11.509Z,73.50
2017-07-27T01:06:37.934Z,73.80
2017-07-27T01:09:04.363Z,73.80
2017-07-27T01:11:31.538Z,73.90
2017-07-27T01:13:57.936Z,73.90
2017-07-27T01:16:25.073Z,74.10
2017-07-27T01:18:51.484Z,74.10
2017-07-27T01:21:17.898Z,74.10
2017-07-27T01:23:44.293Z,74.70
2017-07-27T01:26:10.721Z,74.00
2017-07-27T01:28:37.868Z,74.00
2017-07-27T01:31:05.012Z,74.00
2017-07-27T01:33:32.177Z,74.30
2017-07-27T01:35:59.345Z,74.30
2017-07-27T01:38:25.790Z,74.30
2017-07-27T01:40:52.206Z,74.20
2017-07-27T01:43:18.629Z,74.10
2017-07-27T01:45:45.044Z,74.10
2017-07-27T01:48:11.442Z,73.90
2017-07-27T01:50:37.928Z,74.30
2017-07-27T01:53:05.130Z,74.00
2017-07-27T01:55:31.591Z,74.70
2017-07-27T01:57:58.770Z,74.20
2017-07-27T02:00:25.206Z,74.20
2017-07-27T02:02:51.641Z,74.30
2017-07-27T02:05:18.107Z,74.50
2017-07-27T02:07:44.561Z,74.70
2017-07-27T02:10:10.989Z,74.60
2017-07-27T02:12:37.378Z,74.50
2017-07-27T02:15:03.832Z,74.60
2017-07-27T02:17:30.241Z,74.60
2017-07-27T02:19:56.653Z,74.40
2017-07-27T02:22:23.801Z,74.60
2017-07-27T02:24:50.957Z,74.70
2017-07-27T02:27:17.409Z,74.70
2017-07-27T02:29:44.089Z,74.70
2017-07-27T02:32:10.845Z,74.60
2017-07-27T02:34:37.264Z,74.50
2017-07-27T02:37:03.660Z,74.70
2017-07-27T02:39:30.137Z,74.40
2017-07-27T02:41:56.615Z,74.50
2017-07-27T02:44:23.006Z,74.50
2017-07-27T02:46:49.370Z,74.60
2017-07-27T02:49:16.505Z,74.60
2017-07-27T02:51:43.678Z,74.70
2017-07-27T02:54:10.124Z,74.70
2017-07-27T02:56:36.547Z,74.60
2017-07-27T02:59:02.981Z,74.60
2017-07-27T03:01:29.399Z,74.70
2017-07-27T03:03:56.541Z,74.50
2017-07-27T03:06:23.717Z,74.80
2017-07-27T03:08:50.145Z,74.80
2017-07-27T03:11:16.548Z,74.80
2017-07-27T03:13:43.685Z,74.70
2017-07-27T03:16:10.107Z,74.60
2017-07-27T03:18:36.529Z,74.70
2017-07-27T03:21:02.935Z,74.80
2017-07-27T03:23:29.357Z,75.20
2017-07-27T03:25:55.808Z,75.10
2017-07-27T03:28:22.234Z,75.00
2017-07-27T03:30:48.739Z,74.90
2017-07-27T03:33:15.877Z,75.30
2017-07-27T03:35:43.015Z,75.90
2017-07-27T03:38:09.418Z,75.20
2017-07-27T03:40:35.820Z,74.90
2017-07-27T03:43:02.242Z,75.30
2017-07-27T03:45:29.383Z,74.80
2017-07-27T03:47:56.521Z,75.00
2017-07-27T03:50:23.656Z,74.70
2017-07-27T03:52:50.046Z,74.70
2017-07-27T03:55:16.456Z,74.90
2017-07-27T03:57:42.873Z,74.90
2017-07-27T04:00:10.026Z,75.30
2017-07-27T04:02:37.162Z,75.10
2017-07-27T04:05:03.572Z,75.10
2017-07-27T04:07:29.957Z,75.40
2017-07-27T04:09:56.356Z,75.20
2017-07-27T04:12:22.732Z,75.00
2017-07-27T04:14:49.139Z,75.00
2017-07-27T04:17:15.538Z,75.10
2017-07-27T04:19:41.982Z,74.90
2017-07-27T04:22:08.381Z,75.00
2017-07-27T04:24:34.812Z,75.40
2017-07-27T04:27:01.213Z,75.50
2017-07-27T04:29:27.618Z,75.40
2017-07-27T04:31:54.769Z,75.30
2017-07-27T04:34:21.180Z,75.30
2017-07-27T04:36:47.593Z,75.30
2017-07-27T04:39:13.998Z,75.40
2017-07-27T04:41:40.415Z,75.60
2017-07-27T04:44:07.579Z,75.50
2017-07-27T04:46:33.978Z,75.50
2017-07-27T04:49:00.391Z,75.30
2017-07-27T04:51:26.790Z,75.50
2017-07-27T04:53:53.189Z,75.40
2017-07-27T04:56:20.363Z,75.30
2017-07-27T04:58:46.810Z,75.30
2017-07-27T05:01:13.212Z,75.30
2017-07-27T05:03:39.627Z,75.50
2017-07-27T05:06:06.049Z,75.40
2017-07-27T05:08:32.492Z,75.40
2017-07-27T05:10:58.896Z,75.50
2017-07-27T05:13:25.309Z,75.50
2017-07-27T05:15:51.733Z,75.70
2017-07-27T05:18:18.177Z,75.60
2017-07-27T05:20:44.580Z,75.80
2017-07-27T05:23:10.970Z,75.80
2017-07-27T05:25:37.415Z,75.60
2017-07-27T05:28:03.842Z,75.70
2017-07-27T05:30:30.276Z,75.60
2017-07-27T05:32:56.700Z,75.60
2017-07-27T05:35:23.118Z,75.60
2017-07-27T05:37:49.505Z,75.50
2017-07-27T05:40:16.716Z,75.40
2017-07-27T05:42:43.120Z,75.40
2017-07-27T05:45:09.536Z,75.40
2017-07-27T05:47:36.007Z,75.50
2017-07-27T05:50:02.423Z,75.50
2017-07-27T05:52:29.601Z,75.50
2017-07-27T05:54:56.056Z,75.90
2017-07-27T05:57:22.478Z,76.00
2017-07-27T05:59:48.894Z,76.20
2017-07-27T06:02:15.286Z,76.20
2017-07-27T06:04:41.742Z,75.80
2017-07-27T06:07:08.204Z,75.80
2017-07-27T06:09:34.617Z,75.90
2017-07-27T06:12:01.025Z,75.70
2017-07-27T06:14:27.447Z,76.20
2017-07-27T06:16:53.834Z,76.40
2017-07-27T06:19:20.235Z,76.30
2017-07-27T06:21:46.649Z,76.10
2017-07-27T06:24:13.077Z,76.10
2017-07-27T06:26:39.501Z,76.20
2017-07-27T06:29:05.948Z,75.80
2017-07-27T06:31:32.364Z,75.60
2017-07-27T06:33:58.777Z,75.50
2017-07-27T06:36:25.190Z,75.90
2017-07-27T06:38:51.636Z,75.80
2017-07-27T06:41:18.076Z,76.00
2017-07-27T06:43:45.247Z,75.50
2017-07-27T06:46:11.653Z,75.50
2017-07-27T06:48:38.055Z,75.70
2017-07-27T06:51:04.512Z,75.80
2017-07-27T06:53:30.904Z,75.80
2017-07-27T06:55:57.346Z,75.50
2017-07-27T06:58:23.818Z,75.30
2017-07-27T07:00:51.017Z,76.10
2017-07-27T07:03:17.419Z,75.30
2017-07-27T07:05:44.596Z,75.60
2017-07-27T07:08:11.002Z,75.60
2017-07-27T07:10:38.150Z,75.60
2017-07-27T07:13:05.300Z,75.50
2017-07-27T07:15:32.433Z,75.70
2017-07-27T07:17:58.834Z,75.70
2017-07-27T07:20:25.793Z,75.90
2017-07-27T07:22:52.237Z,75.80
2017-07-27T07:25:18.638Z,75.70
2017-07-27T07:27:45.048Z,75.80
2017-07-27T07:30:11.465Z,75.50
2017-07-27T07:32:37.885Z,75.60
2017-07-27T07:35:05.017Z,75.40
2017-07-27T07:37:31.439Z,75.40
2017-07-27T07:39:57.863Z,75.40
2017-07-27T07:42:24.304Z,75.20
2017-07-27T07:44:50.697Z,75.50
2017-07-27T07:47:17.098Z,75.40
2017-07-27T07:49:44.249Z,75.80
2017-07-27T07:52:11.435Z,75.50
2017-07-27T07:54:37.826Z,75.20
2017-07-27T07:57:04.974Z,75.60
2017-07-27T07:59:32.145Z,75.90
2017-07-27T08:01:58.594Z,75.50
2017-07-27T08:04:25.000Z,75.40
2017-07-27T08:06:52.129Z,75.80
2017-07-27T08:09:30.732Z,75.60
2017-07-27T08:11:57.124Z,75.70
2017-07-27T08:14:23.537Z,75.30
2017-07-27T08:16:50.786Z,75.30
2017-07-27T08:19:17.938Z,75.50
2017-07-27T08:21:45.266Z,75.80
2017-07-27T08:24:11.699Z,75.70
2017-07-27T08:26:38.153Z,75.50
2017-07-27T08:29:05.327Z,75.70
2017-07-27T08:31:31.787Z,75.70
2017-07-27T08:33:58.225Z,75.40
2017-07-27T08:36:24.622Z,75.50
2017-07-27T08:38:51.332Z,75.60
2017-07-27T08:41:17.733Z,75.70
2017-07-27T08:43:45.188Z,75.80
2017-07-27T08:46:11.605Z,75.60
2017-07-27T08:48:38.036Z,75.70
2017-07-27T08:51:04.525Z,75.80
2017-07-27T08:53:31.037Z,75.30
2017-07-27T08:55:57.453Z,75.40
2017-07-27T08:58:23.861Z,75.30
2017-07-27T09:00:50.310Z,75.40
2017-07-27T09:03:16.722Z,75.70
2017-07-27T09:05:43.108Z,75.60
2017-07-27T09:08:09.533Z,75.80
2017-07-27T09:10:35.953Z,75.80
2017-07-27T09:13:02.354Z,75.20
2017-07-27T09:15:28.764Z,75.50
2017-07-27T09:17:55.923Z,75.80
2017-07-27T09:20:22.412Z,75.80
2017-07-27T09:22:48.848Z,75.70
2017-07-27T09:25:15.235Z,75.50
2017-07-27T09:27:41.634Z,75.40
2017-07-27T09:30:08.792Z,75.30
2017-07-27T09:32:35.945Z,75.60
2017-07-27T09:35:03.087Z,75.80
2017-07-27T09:37:30.590Z,75.10
2017-07-27T09:39:57.008Z,75.10
2017-07-27T09:42:23.469Z,75.30
2017-07-27T09:44:49.935Z,75.60
2017-07-27T09:47:16.348Z,75.50
2017-07-27T09:49:42.736Z,75.60
2017-07-27T09:52:09.157Z,75.20
2017-07-27T09:54:36.326Z,75.80
2017-07-27T09:57:08.735Z,75.80
2017-07-27T09:59:35.128Z,75.50
2017-07-27T10:02:01.526Z,75.60
2017-07-27T10:04:28.655Z,75.20
2017-07-27T10:06:55.046Z,75.20
2017-07-27T10:09:21.442Z,75.20
2017-07-27T10:11:48.600Z,75.30
2017-07-27T10:14:15.762Z,75.40
2017-07-27T10:16:42.203Z,74.80
2017-07-27T10:19:08.670Z,74.60
2017-07-27T10:21:35.186Z,74.50
2017-07-27T10:24:01.614Z,75.20
2017-07-27T10:26:28.052Z,74.90
2017-07-27T10:28:54.492Z,75.40
2017-07-27T10:31:20.919Z,75.00
2017-07-27T10:33:47.300Z,74.50
2017-07-27T10:36:13.701Z,74.40
2017-07-27T10:38:40.139Z,74.90
2017-07-27T10:41:06.588Z,74.70
2017-07-27T10:43:33.005Z,74.20
2017-07-27T10:45:59.474Z,74.50
2017-07-27T10:48:26.636Z,74.80
2017-07-27T10:50:53.073Z,74.70
2017-07-27T10:53:20.344Z,74.40
2017-07-27T10:55:46.753Z,73.70
2017-07-27T10:58:13.919Z,74.10
2017-07-27T11:00:40.369Z,74.00
2017-07-27T11:03:06.789Z,73.80
2017-07-27T11:05:33.214Z,74.30
2017-07-27T11:08:00.348Z,73.30
2017-07-27T11:10:27.585Z,72.50
2017-07-27T11:12:53.997Z,72.50
2017-07-27T11:15:20.470Z,72.50
2017-07-27T11:17:47.618Z,71.30
2017-07-27T11:20:14.759Z,70.70
2017-07-27T11:22:41.978Z,71.50
2017-07-27T11:25:08.380Z,71.50
2017-07-27T11:27:34.772Z,70.50
2017-07-27T11:30:01.159Z,69.50
2017-07-27T11:32:27.888Z,70.10
2017-07-27T11:34:54.283Z,69.60
2017-07-27T11:37:21.392Z,68.00
2017-07-27T11:39:47.809Z,68.00
2017-07-27T11:42:14.238Z,67.50
2017-07-27T11:44:40.647Z,67.00
2017-07-27T11:47:07.061Z,65.40
2017-07-27T11:49:33.494Z,64.30
2017-07-27T11:52:00.655Z,64.50
2017-07-27T11:54:27.119Z,64.50
2017-07-27T11:56:53.543Z,64.00
2017-07-27T11:59:19.981Z,64.60
2017-07-27T12:01:46.410Z,65.30
2017-07-27T12:04:12.818Z,63.10
2017-07-27T12:06:39.977Z,62.70
2017-07-27T12:09:07.126Z,63.60
2017-07-27T12:11:33.533Z,63.60
2017-07-27T12:13:59.952Z,62.50
2017-07-27T12:16:26.339Z,63.70
2017-07-27T12:18:52.750Z,61.00
2017-07-27T12:21:19.182Z,60.10
2017-07-27T12:23:46.321Z,60.50
2017-07-27T12:26:12.961Z,60.50
2017-07-27T12:28:39.358Z,62.70
2017-07-27T12:31:05.783Z,62.60
2017-07-27T12:33:32.199Z,61.30
2017-07-27T12:35:58.610Z,62.40
2017-07-27T12:38:25.747Z,60.90
2017-07-27T12:40:52.895Z,60.70
2017-07-27T12:43:20.052Z,60.70
2017-07-27T12:45:47.198Z,57.80
2017-07-27T12:48:14.352Z,62.20
2017-07-27T12:50:40.759Z,61.70
2017-07-27T12:53:07.172Z,59.60
2017-07-27T12:55:33.610Z,57.80
2017-07-27T12:58:00.017Z,59.30
2017-07-27T13:00:26.453Z,57.90
2017-07-27T13:02:52.863Z,58.90
2017-07-27T13:05:19.245Z,58.20
2017-07-27T13:07:45.897Z,59.20
2017-07-27T13:10:12.325Z,59.70
2017-07-27T13:12:38.750Z,57.80
2017-07-27T13:15:05.183Z,57.50
2017-07-27T13:17:31.588Z,58.90
2017-07-27T13:19:58.013Z,60.10
2017-07-27T13:22:24.430Z,59.70
2017-07-27T13:24:50.829Z,60.20
2017-07-27T13:27:17.313Z,61.40
2017-07-27T13:29:43.707Z,60.70
2017-07-27T13:32:10.115Z,61.10
2017-07-27T13:34:36.544Z,61.80
2017-07-27T13:37:02.982Z,62.00
2017-07-27T13:39:29.408Z,62.60
2017-07-27T13:41:55.821Z,61.60
2017-07-27T13:44:22.676Z,62.80
2017-07-27T13:46:49.110Z,63.50
2017-07-27T13:49:15.547Z,64.60
2017-07-27T13:51:41.954Z,64.80
2017-07-27T13:54:08.378Z,64.70
2017-07-27T13:56:34.786Z,64.90
2017-07-27T13:59:01.924Z,64.90
2017-07-27T14:01:28.346Z,64.80
2017-07-27T14:03:54.728Z,65.40
2017-07-27T14:06:21.280Z,64.60
2017-07-27T14:08:47.720Z,64.40
2017-07-27T14:11:14.150Z,63.80
2017-07-27T14:13:40.540Z,63.60
2017-07-27T14:16:06.956Z,64.00
2017-07-27T14:18:33.434Z,65.20
2017-07-27T14:20:59.858Z,65.30
2017-07-27T14:23:26.266Z,66.10
2017-07-27T14:25:53.428Z,66.50
2017-07-27T14:28:20.028Z,65.90
2017-07-27T14:30:47.200Z,66.90
2017-07-27T14:33:14.398Z,66.20
2017-07-27T14:35:40.814Z,66.20
2017-07-27T14:38:07.231Z,64.80
2017-07-27T14:40:34.384Z,64.90
2017-07-27T14:43:00.784Z,64.90
2017-07-27T14:45:27.165Z,65.00
2017-07-27T14:47:53.591Z,64.60
2017-07-27T14:50:20.030Z,64.00
2017-07-27T14:52:46.422Z,63.90
2017-07-27T14:55:13.613Z,63.20
2017-07-27T14:57:39.985Z,63.10
2017-07-27T15:00:06.418Z,63.10
2017-07-27T15:02:32.817Z,63.30
2017-07-27T15:04:59.247Z,63.70
2017-07-27T15:07:26.027Z,63.00
2017-07-27T15:09:52.423Z,63.90
2017-07-27T15:12:18.842Z,61.40
2017-07-27T15:14:45.299Z,58.90
2017-07-27T15:17:11.713Z,58.20
2017-07-27T15:19:38.409Z,58.60
2017-07-27T15:22:04.817Z,56.90
2017-07-27T15:24:31.228Z,56.50
2017-07-27T15:26:57.637Z,57.80
2017-07-27T15:29:24.769Z,59.10
2017-07-27T15:31:51.185Z,59.00
2017-07-27T15:34:17.604Z,57.50
2017-07-27T15:36:44.000Z,56.50
2017-07-27T15:39:10.692Z,56.40
2017-07-27T15:41:37.113Z,56.00
2017-07-27T15:44:03.885Z,56.90
2017-07-27T15:46:31.056Z,56.70
2017-07-27T15:48:57.481Z,56.70
2017-07-27T15:51:24.622Z,57.10
2017-07-27T15:53:51.795Z,57.30
2017-07-27T15:56:18.169Z,56.70
2017-07-27T15:58:44.625Z,57.00
2017-07-27T16:01:11.890Z,57.50
2017-07-27T16:03:39.020Z,58.10
2017-07-27T16:06:05.483Z,58.10
2017-07-27T16:08:31.946Z,58.50
2017-07-27T16:10:58.353Z,58.40
2017-07-27T16:13:24.758Z,59.00
2017-07-27T16:15:51.268Z,58.60
2017-07-27T16:18:17.770Z,58.10
2017-07-27T16:20:44.221Z,58.10
2017-07-27T16:23:10.638Z,57.80
2017-07-27T16:25:37.130Z,57.50
2017-07-27T16:28:03.584Z,57.40
2017-07-27T16:30:30.065Z,57.90
2017-07-27T16:32:56.473Z,57.30
2017-07-27T16:35:22.872Z,57.70
2017-07-27T16:37:50.092Z,58.80
2017-07-27T16:40:16.489Z,58.70
2017-07-27T16:42:42.878Z,58.60
2017-07-27T16:45:09.293Z,58.60
2017-07-27T16:47:35.710Z,58.40
2017-07-27T16:50:02.148Z,59.20
2017-07-27T16:52:28.551Z,59.10
2017-07-27T16:54:54.964Z,59.50
2017-07-27T16:57:22.104Z,59.40
2017-07-27T16:59:49.232Z,60.60
2017-07-27T17:02:15.625Z,60.00
2017-07-27T17:04:42.060Z,60.20
2017-07-27T17:07:08.484Z,60.30
2017-07-27T17:09:34.914Z,60.80
2017-07-27T17:12:01.380Z,61.30
2017-07-27T17:14:27.796Z,61.50
2017-07-27T17:16:54.212Z,61.50
2017-07-27T17:19:20.674Z,61.80
2017-07-27T17:21:47.107Z,62.00
2017-07-27T17:24:13.512Z,61.70
2017-07-27T17:26:39.914Z,61.40
2017-07-27T17:29:07.055Z,61.90
2017-07-27T17:31:33.904Z,61.90
2017-07-27T17:34:00.315Z,61.90
2017-07-27T17:36:26.726Z,62.50
2017-07-27T17:38:53.130Z,62.60
2017-07-27T17:41:19.714Z,62.90
2017-07-27T17:43:46.113Z,62.90
2017-07-27T17:46:12.524Z,63.50
2017-07-27T17:48:38.960Z,63.10
2017-07-27T17:51:05.407Z,63.20
2017-07-27T17:53:31.812Z,63.50
2017-07-27T17:55:58.958Z,63.60
2017-07-27T17:58:26.098Z,64.40
2017-07-27T18:00:53.229Z,64.60
2017-07-27T18:03:19.643Z,63.80
2017-07-27T18:05:46.045Z,64.00
2017-07-27T18:08:12.481Z,64.10
2017-07-27T18:10:38.879Z,63.80
2017-07-27T18:13:05.278Z,63.80
2017-07-27T18:15:31.678Z,64.30
2017-07-27T18:17:58.098Z,64.40
2017-07-27T18:20:25.262Z,64.10
2017-07-27T18:22:51.714Z,64.10
2017-07-27T18:25:18.130Z,64.30
2017-07-27T18:27:44.598Z,64.90
2017-07-27T18:30:11.068Z,64.80
2017-07-27T18:32:38.222Z,65.10
2017-07-27T18:35:05.385Z,65.10
2017-07-27T18:37:31.782Z,65.70
2017-07-27T18:39:58.186Z,64.60
2017-07-27T18:42:24.596Z,65.80
2017-07-27T18:44:50.994Z,65.20
2017-07-27T18:47:18.208Z,66.40
2017-07-27T18:49:44.620Z,65.60
2017-07-27T18:52:11.022Z,65.50
2017-07-27T18:54:37.460Z,65.70
2017-07-27T18:57:04.643Z,66.60
2017-07-27T18:59:31.110Z,66.00
2017-07-27T19:01:57.544Z,66.00
2017-07-27T19:04:23.939Z,66.30
2017-07-27T19:06:50.373Z,66.30
2017-07-27T19:09:16.760Z,66.50
2017-07-27T19:11:43.895Z,66.70
2017-07-27T19:14:10.297Z,66.60
2017-07-27T19:16:36.783Z,66.40
2017-07-27T19:19:03.210Z,66.50
2017-07-27T19:21:30.379Z,66.90
2017-07-27T19:23:56.840Z,66.90
2017-07-27T19:26:23.281Z,67.00
2017-07-27T19:28:49.686Z,66.90
2017-07-27T19:31:16.123Z,67.20
2017-07-27T19:33:42.524Z,66.70
2017-07-27T19:36:08.984Z,67.00
2017-07-27T19:38:35.405Z,67.10
2017-07-27T19:41:02.615Z,67.40
2017-07-27T19:43:29.021Z,67.40
2017-07-27T19:45:55.421Z,67.60
2017-07-27T19:48:21.940Z,67.70
2017-07-27T19:50:48.441Z,67.70
2017-07-27T19:53:14.873Z,67.90
2017-07-27T19:55:41.298Z,67.70
2017-07-27T19:58:07.699Z,68.00
2017-07-27T20:00:34.110Z,68.30
2017-07-27T20:03:01.261Z,68.90
2017-07-27T20:05:28.438Z,68.20
2017-07-27T20:07:54.846Z,68.20
2017-07-27T20:10:21.985Z,68.50
2017-07-27T20:12:48.386Z,68.40
2017-07-27T20:15:14.819Z,68.40
2017-07-27T20:17:41.227Z,68.70
2017-07-27T20:20:07.908Z,68.70
2017-07-27T20:22:34.363Z,69.00
2017-07-27T20:25:01.525Z,69.60
2017-07-27T20:27:28.717Z,69.40
2017-07-27T20:29:55.120Z,69.30
2017-07-27T20:32:21.640Z,69.90
2017-07-27T20:34:48.741Z,70.00
2017-07-27T20:37:15.174Z,70.00
2017-07-27T20:39:41.605Z,69.30
2017-07-27T20:42:08.008Z,69.10
2017-07-27T20:44:34.420Z,69.30
2017-07-27T20:47:01.574Z,69.90
2017-07-27T20:49:27.998Z,69.80
2017-07-27T20:51:55.143Z,69.50
2017-07-27T20:54:22.273Z,69.60
2017-07-27T20:56:48.728Z,69.70
2017-07-27T20:59:15.888Z,70.40
2017-07-27T21:01:42.310Z,70.40
2017-07-27T21:04:09.462Z,71.50
2017-07-27T21:06:36.596Z,70.60
2017-07-27T21:09:03.035Z,70.50
2017-07-27T21:11:29.455Z,70.20
2017-07-27T21:13:55.877Z,70.30
2017-07-27T21:16:22.307Z,70.80
2017-07-27T21:18:48.718Z,71.40
2017-07-27T21:21:15.506Z,71.60
2017-07-27T21:23:41.906Z,71.30
2017-07-27T21:26:08.322Z,70.90
2017-07-27T21:28:34.725Z,71.40
2017-07-27T21:31:01.120Z,71.80
2017-07-27T21:33:27.981Z,72.10
2017-07-27T21:35:55.149Z,71.10
2017-07-27T21:38:22.293Z,71.30
2017-07-27T21:40:49.446Z,71.90
2017-07-27T21:43:15.842Z,71.20
2017-07-27T21:45:42.297Z,71.50
2017-07-27T21:48:08.878Z,71.60
2017-07-27T21:50:35.302Z,71.00
2017-07-27T21:53:01.689Z,71.70
2017-07-27T21:55:28.096Z,71.60
2017-07-27T21:57:54.505Z,71.70
2017-07-27T22:00:20.908Z,71.60
2017-07-27T22:02:48.047Z,71.60
2017-07-27T22:05:14.472Z,70.90
2017-07-27T22:07:40.874Z,72.00
2017-07-27T22:10:07.309Z,72.10
2017-07-27T22:12:33.718Z,72.50
2017-07-27T22:15:00.139Z,72.40
2017-07-27T22:17:26.561Z,72.10
2017-07-27T22:19:53.683Z,71.80
2017-07-27T22:22:20.098Z,71.80
2017-07-27T22:24:46.488Z,71.20
2017-07-27T22:27:12.892Z,71.10
2017-07-27T22:29:39.306Z,71.10
2017-07-27T22:32:05.728Z,71.60
2017-07-27T22:34:32.151Z,71.30
2017-07-27T22:37:05.402Z,71.80
2017-07-27T22:39:31.856Z,71.80
2017-07-27T22:41:58.275Z,71.60
2017-07-27T22:44:24.704Z,71.70
2017-07-27T22:46:51.117Z,72.00
2017-07-27T22:49:18.300Z,72.40
2017-07-27T22:51:44.701Z,71.60
2017-07-27T22:54:11.889Z,72.40
2017-07-27T22:56:38.294Z,71.70
2017-07-27T22:59:05.436Z,72.20
2017-07-27T23:01:32.603Z,72.60
2017-07-27T23:03:59.021Z,72.00
2017-07-27T23:06:26.139Z,73.30
2017-07-27T23:08:52.564Z,73.30
2017-07-27T23:11:18.961Z,72.90
2017-07-27T23:13:45.361Z,72.30
2017-07-27T23:16:11.753Z,72.20
2017-07-27T23:18:38.172Z,71.90
2017-07-27T23:21:04.574Z,72.20
2017-07-27T23:23:31.741Z,73.00
2017-07-27T23:25:58.113Z,73.10
2017-07-27T23:28:24.544Z,73.10
2017-07-27T23:30:50.974Z,72.80
2017-07-27T23:33:17.402Z,72.30
2017-07-27T23:35:43.836Z,72.00
2017-07-27T23:38:10.258Z,72.10
2017-07-27T23:40:36.703Z,72.70
2017-07-27T23:43:03.108Z,72.00
2017-07-27T23:45:29.513Z,71.80
2017-07-27T23:47:56.674Z,72.60
2017-07-27T23:50:23.063Z,73.20
2017-07-27T23:52:49.467Z,72.50
2017-07-27T23:55:15.889Z,72.00
2017-07-27T23:57:42.265Z,71.50
